Tonyrefail, United Kingdom
Current Conditions -  °F | °C
As of 2:50 AM on Saturday 20 Dec 2014 (Local Time) from EGDX Reporting Station
Broken Clouds Broken Clouds  
Wind Chill:   Ceiling: 3900
Heat Index:   Visibility: 6mi
Dew Point:   Wind: 17mph
Humidity: 81%   Direction: 280°W
Pressure: 30.27"   Gusts: NA
Location:  51.58°N, 3.43°W
Report Text: EGDX 200250Z AUTO 28015KT 9999 FEW028/// BKN039/// 08/05 Q1025
Loading
Personal Weather Stations






























Interactive Weather Map New forecast layout! Learn more

10-Day Weather Forecast

Advertisements
Track Severe Weather on mobile